sensor_id;sensor_type;location;lat;lon;timestamp;pressure;altitude;pressure_sealevel;temperature;humidity
50087;BME280;35967;50.718;7.050;2023-06-22T00:04:05;100905.72;;;22.03;90.60
50087;BME280;35967;50.718;7.050;2023-06-22T00:14:08;100919.16;;;22.11;89.00
50087;BME280;35967;50.718;7.050;2023-06-22T00:24:16;100917.47;;;22.10;89.28
50087;BME280;35967;50.718;7.050;2023-06-22T00:34:19;100919.22;;;21.97;89.70
50087;BME280;35967;50.718;7.050;2023-06-22T00:44:23;100926.25;;;21.96;89.46
50087;BME280;35967;50.718;7.050;2023-06-22T00:54:27;100918.16;;;21.86;90.04
50087;BME280;35967;50.718;7.050;2023-06-22T01:04:36;100909.53;;;21.84;90.13
50087;BME280;35967;50.718;7.050;2023-06-22T01:14:43;100913.84;;;21.85;89.56
50087;BME280;35967;50.718;7.050;2023-06-22T01:25:00;100902.59;;;21.70;89.71
50087;BME280;35967;50.718;7.050;2023-06-22T01:35:08;100891.84;;;21.88;88.05
50087;BME280;35967;50.718;7.050;2023-06-22T01:45:13;100875.03;;;21.78;87.09
50087;BME280;35967;50.718;7.050;2023-06-22T01:55:19;100874.84;;;21.81;88.92
50087;BME280;35967;50.718;7.050;2023-06-22T02:05:24;100885.88;;;21.58;88.95
50087;BME280;35967;50.718;7.050;2023-06-22T02:15:29;100881.84;;;21.53;91.20
50087;BME280;35967;50.718;7.050;2023-06-22T02:25:34;100884.13;;;21.44;91.99
50087;BME280;35967;50.718;7.050;2023-06-22T02:35:38;100873.47;;;21.48;92.78
50087;BME280;35967;50.718;7.050;2023-06-22T02:45:42;100876.84;;;21.35;93.05
50087;BME280;35967;50.718;7.050;2023-06-22T02:55:47;100876.53;;;21.12;93.09
50087;BME280;35967;50.718;7.050;2023-06-22T03:05:50;100841.75;;;20.83;95.93
50087;BME280;35967;50.718;7.050;2023-06-22T03:15:59;100848.56;;;20.57;100.00
50087;BME280;35967;50.718;7.050;2023-06-22T03:26:02;100844.75;;;20.48;100.00
50087;BME280;35967;50.718;7.050;2023-06-22T03:36:07;100835.56;;;20.84;100.00
50087;BME280;35967;50.718;7.050;2023-06-22T03:46:11;100820.22;;;20.92;100.00
50087;BME280;35967;50.718;7.050;2023-06-22T03:56:16;100815.88;;;20.78;100.00
50087;BME280;35967;50.718;7.050;2023-06-22T04:06:22;100813.00;;;20.40;100.00
50087;BME280;35967;50.718;7.050;2023-06-22T04:16:26;100805.41;;;20.49;100.00
50087;BME280;35967;50.718;7.050;2023-06-22T04:26:29;100814.75;;;20.68;100.00
50087;BME280;35967;50.718;7.050;2023-06-22T04:36:40;100813.72;;;20.56;100.00
50087;BME280;35967;50.718;7.050;2023-06-22T04:46:43;100823.19;;;21.01;100.00
50087;BME280;35967;50.718;7.050;2023-06-22T04:56:48;100814.13;;;21.06;100.00
50087;BME280;35967;50.718;7.050;2023-06-22T05:06:58;100811.63;;;21.05;100.00
50087;BME280;35967;50.718;7.050;2023-06-22T05:17:03;100815.28;;;20.88;100.00
50087;BME280;35967;50.718;7.050;2023-06-22T05:27:17;100803.94;;;21.02;100.00
50087;BME280;35967;50.718;7.050;2023-06-22T05:37:21;100795.16;;;21.70;99.82
50087;BME280;35967;50.718;7.050;2023-06-22T05:47:24;100795.41;;;22.45;94.28
50087;BME280;35967;50.718;7.050;2023-06-22T05:57:29;100816.66;;;22.66;94.70
50087;BME280;35967;50.718;7.050;2023-06-22T06:07:32;100814.84;;;22.66;93.68
50087;BME280;35967;50.718;7.050;2023-06-22T06:41:42;100844.97;;;23.11;90.00
50087;BME280;35967;50.718;7.050;2023-06-22T06:51:49;100821.50;;;22.83;89.67
50087;BME280;35967;50.718;7.050;2023-06-22T07:01:53;100803.28;;;23.06;87.60
50087;BME280;35967;50.718;7.050;2023-06-22T07:11:57;100793.63;;;22.82;88.42
50087;BME280;35967;50.718;7.050;2023-06-22T07:22:01;100786.47;;;23.33;87.38
50087;BME280;35967;50.718;7.050;2023-06-22T07:32:05;100783.03;;;23.44;86.35
50087;BME280;35967;50.718;7.050;2023-06-22T07:42:10;100754.16;;;24.25;82.76
50087;BME280;35967;50.718;7.050;2023-06-22T07:52:13;100757.75;;;24.91;79.65
50087;BME280;35967;50.718;7.050;2023-06-22T08:02:17;100744.69;;;25.22;78.55
50087;BME280;35967;50.718;7.050;2023-06-22T08:12:21;100713.22;;;25.93;75.49
50087;BME280;35967;50.718;7.050;2023-06-22T08:22:25;100701.13;;;26.22;73.11
50087;BME280;35967;50.718;7.050;2023-06-22T08:32:29;100686.59;;;26.67;70.40
50087;BME280;35967;50.718;7.050;2023-06-22T08:42:36;100677.84;;;26.86;67.92
50087;BME280;35967;50.718;7.050;2023-06-22T08:52:40;100650.59;;;26.56;70.65
50087;BME280;35967;50.718;7.050;2023-06-22T09:02:47;100625.06;;;26.76;69.16
50087;BME280;35967;50.718;7.050;2023-06-22T09:12:50;100626.69;;;26.57;69.60
50087;BME280;35967;50.718;7.050;2023-06-22T09:22:54;100594.59;;;26.82;68.83
50087;BME280;35967;50.718;7.050;2023-06-22T09:32:57;100572.28;;;27.42;67.69
50087;BME280;35967;50.718;7.050;2023-06-22T09:43:03;100567.59;;;27.35;67.22
50087;BME280;35967;50.718;7.050;2023-06-22T09:53:06;100583.06;;;26.83;69.10
50087;BME280;35967;50.718;7.050;2023-06-22T10:03:12;100581.38;;;26.52;72.18
50087;BME280;35967;50.718;7.050;2023-06-22T10:13:15;100611.81;;;26.27;74.37
50087;BME280;35967;50.718;7.050;2023-06-22T10:23:20;100663.16;;;26.13;78.74
50087;BME280;35967;50.718;7.050;2023-06-22T10:33:24;100685.38;;;25.79;86.15
50087;BME280;35967;50.718;7.050;2023-06-22T10:43:28;100715.00;;;24.54;100.00
50087;BME280;35967;50.718;7.050;2023-06-22T10:53:32;100725.94;;;22.99;100.00
50087;BME280;35967;50.718;7.050;2023-06-22T11:03:36;100664.94;;;23.42;100.00
50087;BME280;35967;50.718;7.050;2023-06-22T11:13:40;100717.44;;;23.20;100.00
50087;BME280;35967;50.718;7.050;2023-06-22T11:23:45;100577.59;;;23.05;100.00
50087;BME280;35967;50.718;7.050;2023-06-22T11:33:48;100609.31;;;23.37;100.00
50087;BME280;35967;50.718;7.050;2023-06-22T11:43:52;100589.94;;;24.60;100.00
50087;BME280;35967;50.718;7.050;2023-06-22T11:53:56;100563.25;;;24.11;100.00
50087;BME280;35967;50.718;7.050;2023-06-22T12:04:00;100532.09;;;23.84;100.00
50087;BME280;35967;50.718;7.050;2023-06-22T12:14:08;100519.00;;;23.61;100.00
50087;BME280;35967;50.718;7.050;2023-06-22T12:24:12;100490.31;;;24.13;100.00
50087;BME280;35967;50.718;7.050;2023-06-22T12:34:16;100474.34;;;26.10;100.00
50087;BME280;35967;50.718;7.050;2023-06-22T12:44:20;100463.16;;;26.56;94.09
50087;BME280;35967;50.718;7.050;2023-06-22T12:54:23;100448.25;;;25.27;93.63
50087;BME280;35967;50.718;7.050;2023-06-22T13:04:27;100407.41;;;26.59;86.57
50087;BME280;35967;50.718;7.050;2023-06-22T13:14:31;100418.69;;;27.45;80.70
50087;BME280;35967;50.718;7.050;2023-06-22T13:24:35;100407.72;;;26.56;88.17
50087;BME280;35967;50.718;7.050;2023-06-22T13:34:39;100361.34;;;26.43;86.36
50087;BME280;35967;50.718;7.050;2023-06-22T13:44:43;100330.91;;;26.02;83.45
50087;BME280;35967;50.718;7.050;2023-06-22T13:54:46;100292.84;;;25.57;80.49
50087;BME280;35967;50.718;7.050;2023-06-22T14:04:50;100268.72;;;25.51;81.13
50087;BME280;35967;50.718;7.050;2023-06-22T14:14:55;100243.63;;;25.28;84.94
50087;BME280;35967;50.718;7.050;2023-06-22T14:25:00;100240.25;;;24.77;84.04
50087;BME280;35967;50.718;7.050;2023-06-22T14:35:05;100294.47;;;24.48;90.24
50087;BME280;35967;50.718;7.050;2023-06-22T14:45:09;100279.75;;;23.09;100.00
50087;BME280;35967;50.718;7.050;2023-06-22T15:19:31;100225.00;;;21.69;100.00
50087;BME280;35967;50.718;7.050;2023-06-22T15:29:35;100222.50;;;21.68;100.00
50087;BME280;35967;50.718;7.050;2023-06-22T15:39:39;100165.25;;;21.74;100.00
50087;BME280;35967;50.718;7.050;2023-06-22T15:49:43;100165.50;;;21.83;100.00
50087;BME280;35967;50.718;7.050;2023-06-22T15:59:47;100182.03;;;21.83;100.00
50087;BME280;35967;50.718;7.050;2023-06-22T16:09:50;100146.88;;;21.63;100.00
50087;BME280;35967;50.718;7.050;2023-06-22T16:19:54;100149.22;;;21.43;100.00
50087;BME280;35967;50.718;7.050;2023-06-22T16:30:00;100132.25;;;21.61;100.00
50087;BME280;35967;50.718;7.050;2023-06-22T16:40:05;100090.09;;;21.86;100.00
50087;BME280;35967;50.718;7.050;2023-06-22T16:50:11;100096.59;;;22.15;100.00
50087;BME280;35967;50.718;7.050;2023-06-22T17:00:16;100108.44;;;22.42;100.00
50087;BME280;35967;50.718;7.050;2023-06-22T17:10:21;100122.97;;;22.34;100.00
50087;BME280;35967;50.718;7.050;2023-06-22T17:20:27;100170.44;;;22.43;100.00
50087;BME280;35967;50.718;7.050;2023-06-22T17:30:32;100173.50;;;22.48;100.00
50087;BME280;35967;50.718;7.050;2023-06-22T17:40:39;100151.75;;;22.68;100.00
50087;BME280;35967;50.718;7.050;2023-06-22T17:50:42;100157.63;;;22.61;100.00
50087;BME280;35967;50.718;7.050;2023-06-22T18:00:47;100162.25;;;22.68;100.00
50087;BME280;35967;50.718;7.050;2023-06-22T18:10:53;100141.06;;;22.60;100.00
50087;BME280;35967;50.718;7.050;2023-06-22T18:21:01;100141.09;;;22.49;100.00
50087;BME280;35967;50.718;7.050;2023-06-22T18:31:06;100128.25;;;22.46;100.00
50087;BME280;35967;50.718;7.050;2023-06-22T18:41:21;100131.94;;;22.20;100.00
50087;BME280;35967;50.718;7.050;2023-06-22T18:51:25;100147.81;;;21.51;100.00
50087;BME280;35967;50.718;7.050;2023-06-22T19:01:30;100180.66;;;21.08;100.00
50087;BME280;35967;50.718;7.050;2023-06-22T19:11:33;100215.69;;;20.57;100.00
50087;BME280;35967;50.718;7.050;2023-06-22T19:21:38;100238.19;;;20.09;100.00
50087;BME280;35967;50.718;7.050;2023-06-22T19:31:42;100242.22;;;19.62;100.00
50087;BME280;35967;50.718;7.050;2023-06-22T19:41:47;100284.06;;;19.47;100.00
50087;BME280;35967;50.718;7.050;2023-06-22T19:51:50;100322.13;;;19.64;100.00
50087;BME280;35967;50.718;7.050;2023-06-22T20:01:54;100347.44;;;18.95;100.00
50087;BME280;35967;50.718;7.050;2023-06-22T20:11:58;100388.56;;;18.75;100.00
50087;BME280;35967;50.718;7.050;2023-06-22T20:22:06;100419.19;;;18.42;100.00
50087;BME280;35967;50.718;7.050;2023-06-22T20:32:10;100446.97;;;17.97;100.00
50087;BME280;35967;50.718;7.050;2023-06-22T20:42:16;100464.00;;;17.71;100.00
50087;BME280;35967;50.718;7.050;2023-06-22T20:52:20;100465.91;;;17.83;100.00
50087;BME280;35967;50.718;7.050;2023-06-22T21:02:24;100502.72;;;17.93;100.00
50087;BME280;35967;50.718;7.050;2023-06-22T21:12:29;100503.56;;;17.93;100.00
50087;BME280;35967;50.718;7.050;2023-06-22T21:22:34;100524.91;;;18.16;100.00
50087;BME280;35967;50.718;7.050;2023-06-22T21:32:39;100539.25;;;18.23;100.00
50087;BME280;35967;50.718;7.050;2023-06-22T21:42:47;100547.88;;;18.09;100.00
50087;BME280;35967;50.718;7.050;2023-06-22T21:52:50;100545.50;;;18.05;100.00
50087;BME280;35967;50.718;7.050;2023-06-22T22:02:55;100569.22;;;18.00;100.00
50087;BME280;35967;50.718;7.050;2023-06-22T22:12:58;100605.47;;;18.03;100.00
50087;BME280;35967;50.718;7.050;2023-06-22T22:23:02;100603.25;;;18.13;100.00
50087;BME280;35967;50.718;7.050;2023-06-22T22:33:06;100619.78;;;18.12;100.00
50087;BME280;35967;50.718;7.050;2023-06-22T22:43:12;100616.06;;;18.16;100.00
50087;BME280;35967;50.718;7.050;2023-06-22T22:53:15;100658.88;;;18.12;100.00
50087;BME280;35967;50.718;7.050;2023-06-22T23:03:20;100695.34;;;18.12;100.00
50087;BME280;35967;50.718;7.050;2023-06-22T23:13:23;100732.13;;;18.06;100.00
50087;BME280;35967;50.718;7.050;2023-06-22T23:23:30;100765.91;;;18.07;100.00
50087;BME280;35967;50.718;7.050;2023-06-22T23:33:34;100814.63;;;18.05;100.00
50087;BME280;35967;50.718;7.050;2023-06-22T23:43:40;100799.91;;;18.04;100.00
50087;BME280;35967;50.718;7.050;2023-06-22T23:53:43;100800.78;;;18.05;100.00
